Izmir Cigli Air Force Base, Türkiye

Saat: 01:11 AM EEST Tarih: 29 Ağustos 2015 (GMT +0300)
Adnan Menderes | | Change Station
CLOSE
Current Station
Hava Meydanı
Location: Izmir,
Yükseklik: 394 ft
Nearby Weather Stations

Elev 394 ft 38.29 °N, 27.15 °E | Updated 21 minutes ago

Clear
Açık
79
Feels Like 79
N
10
Rüzgar Değişken Rüzgar from KKD

Bugün
High -- | Low -- F°
--% Chance of Precip.
Dün
High -- | Low -- F°
Precip. -- inç
6:38 AM 7:47 PM
Şişkin Ay, 99% visible
Basınç 29.98 inç
Görüş Uzaklığı -9999.0 mil
Bulutlar
Çiğ noktası 54
Nem oranı 42%
Yağış 0.00 inç
Kar Kalınlığı Not available.
Not available.
Pollen Not available.
Hava Kalitesi Not available.
Flu Activity Not available.
METAR LTBJ 282150Z 02009KT CAVOK 26/12 Q1015 NOSIG
Basınç 29.98 inç
Görüş Uzaklığı -9999.0 mil
Bulutlar
Çiğ noktası 54
Nem oranı 42%
Yağış 0.00 inç
Kar Kalınlığı Not available.
Not available.
Pollen Not available.
Hava Kalitesi Not available.
Flu Activity Not available.
METAR LTBJ 282150Z 02009KT CAVOK 26/12 Q1015 NOSIG

10-Day Weather Forecast

×

Almanac

Gökbilim

Aug. 29, 2015 Rise Set
Gerçek Zaman
Günlük Tan
Deniz Tanı
Geceyarısı Yıldız Zamanı
Ay
Görünür Işığın Uzunluğu
Günün Uzunluğu
Tomorrow will be .
, % of the Moon is Illuminated

Günün En Yüksekleri

Country Highs Country Lows

Community

WunderPhotos

Upload Photos

1,850,515 photos uploaded!

WunderBlogs® & News

Nearby

Hava Kalitesi

  Hava Kalitesi Hava Kalitesi Endeksi Kirletici
Not available.

Kar Kalınlığı

Station Depth Yükseklik

Earthquake Activity

Şehir Distance Mag. Time & Date
Minimum magnitude displayed is 2.5.

Coastal Water Temperatures

Yer Sıcaklık

Stations

Nearby Weather Stations

Station Location Sıcaklık Rüzgar Etkisi Çiğ noktası Nem oranı Rüzgar Precip. Elev Güncellenme Zamanı Biçim